sensor_id;sensor_type;location;lat;lon;timestamp;temperature;humidity
16966;DHT22;8599;47.852;12.070;2023-06-26T00:01:58;19.30;99.90
16966;DHT22;8599;47.852;12.070;2023-06-26T00:04:24;19.20;99.90
16966;DHT22;8599;47.852;12.070;2023-06-26T00:06:51;18.70;99.90
16966;DHT22;8599;47.852;12.070;2023-06-26T00:09:18;18.50;99.90
16966;DHT22;8599;47.852;12.070;2023-06-26T00:11:45;18.50;99.90
16966;DHT22;8599;47.852;12.070;2023-06-26T00:14:13;18.50;99.90
16966;DHT22;8599;47.852;12.070;2023-06-26T00:16:40;18.70;99.90
16966;DHT22;8599;47.852;12.070;2023-06-26T00:19:08;18.70;99.90
16966;DHT22;8599;47.852;12.070;2023-06-26T00:21:34;18.80;99.90
16966;DHT22;8599;47.852;12.070;2023-06-26T00:24:01;18.80;99.90
16966;DHT22;8599;47.852;12.070;2023-06-26T00:26:28;18.80;99.90
16966;DHT22;8599;47.852;12.070;2023-06-26T00:28:55;18.90;99.90
16966;DHT22;8599;47.852;12.070;2023-06-26T00:31:23;18.90;99.90
16966;DHT22;8599;47.852;12.070;2023-06-26T00:33:50;18.90;99.90
16966;DHT22;8599;47.852;12.070;2023-06-26T00:36:16;18.90;99.90
16966;DHT22;8599;47.852;12.070;2023-06-26T00:38:43;19.00;99.90
16966;DHT22;8599;47.852;12.070;2023-06-26T00:41:10;19.00;99.90
16966;DHT22;8599;47.852;12.070;2023-06-26T00:43:38;18.90;99.90
16966;DHT22;8599;47.852;12.070;2023-06-26T00:46:09;18.90;99.90
16966;DHT22;8599;47.852;12.070;2023-06-26T00:48:38;18.80;99.90
16966;DHT22;8599;47.852;12.070;2023-06-26T00:51:05;18.80;99.90
16966;DHT22;8599;47.852;12.070;2023-06-26T00:53:33;18.80;99.90
16966;DHT22;8599;47.852;12.070;2023-06-26T00:55:59;18.90;99.90
16966;DHT22;8599;47.852;12.070;2023-06-26T00:58:27;18.80;99.90
16966;DHT22;8599;47.852;12.070;2023-06-26T01:00:54;18.80;99.90
16966;DHT22;8599;47.852;12.070;2023-06-26T01:03:23;18.80;99.90
16966;DHT22;8599;47.852;12.070;2023-06-26T01:05:52;18.60;99.90
16966;DHT22;8599;47.852;12.070;2023-06-26T01:08:22;18.20;99.90
16966;DHT22;8599;47.852;12.070;2023-06-26T01:10:49;18.00;99.90
16966;DHT22;8599;47.852;12.070;2023-06-26T01:13:17;17.90;99.90
16966;DHT22;8599;47.852;12.070;2023-06-26T01:15:45;17.80;99.90
16966;DHT22;8599;47.852;12.070;2023-06-26T01:18:12;17.80;99.90
16966;DHT22;8599;47.852;12.070;2023-06-26T01:20:41;17.80;99.90
16966;DHT22;8599;47.852;12.070;2023-06-26T01:23:15;17.90;99.90
16966;DHT22;8599;47.852;12.070;2023-06-26T01:25:54;17.90;99.90
16966;DHT22;8599;47.852;12.070;2023-06-26T01:28:24;17.90;99.90
16966;DHT22;8599;47.852;12.070;2023-06-26T01:30:52;18.00;99.90
16966;DHT22;8599;47.852;12.070;2023-06-26T01:33:20;18.10;99.90
16966;DHT22;8599;47.852;12.070;2023-06-26T01:35:47;18.00;99.90
16966;DHT22;8599;47.852;12.070;2023-06-26T01:38:16;18.00;99.90
16966;DHT22;8599;47.852;12.070;2023-06-26T01:40:43;18.00;99.90
16966;DHT22;8599;47.852;12.070;2023-06-26T01:43:15;18.10;99.90
16966;DHT22;8599;47.852;12.070;2023-06-26T01:45:46;18.10;99.90
16966;DHT22;8599;47.852;12.070;2023-06-26T01:48:16;18.20;99.90
16966;DHT22;8599;47.852;12.070;2023-06-26T01:50:47;18.10;99.90
16966;DHT22;8599;47.852;12.070;2023-06-26T01:53:17;18.10;99.90
16966;DHT22;8599;47.852;12.070;2023-06-26T01:55:47;18.10;99.90
16966;DHT22;8599;47.852;12.070;2023-06-26T01:58:18;18.10;99.90
16966;DHT22;8599;47.852;12.070;2023-06-26T02:00:47;17.90;99.90
16966;DHT22;8599;47.852;12.070;2023-06-26T02:03:14;17.70;99.90
16966;DHT22;8599;47.852;12.070;2023-06-26T02:05:41;17.50;99.90
16966;DHT22;8599;47.852;12.070;2023-06-26T02:08:08;17.50;99.90
16966;DHT22;8599;47.852;12.070;2023-06-26T02:10:36;17.50;99.90
16966;DHT22;8599;47.852;12.070;2023-06-26T02:13:03;17.60;99.90
16966;DHT22;8599;47.852;12.070;2023-06-26T02:15:30;17.60;99.90
16966;DHT22;8599;47.852;12.070;2023-06-26T02:17:58;17.60;99.90
16966;DHT22;8599;47.852;12.070;2023-06-26T02:20:25;17.60;99.90
16966;DHT22;8599;47.852;12.070;2023-06-26T02:22:51;17.50;99.90
16966;DHT22;8599;47.852;12.070;2023-06-26T02:25:18;17.60;99.90
16966;DHT22;8599;47.852;12.070;2023-06-26T02:27:45;17.70;99.90
16966;DHT22;8599;47.852;12.070;2023-06-26T02:30:12;17.70;99.90
16966;DHT22;8599;47.852;12.070;2023-06-26T02:32:39;17.70;99.90
16966;DHT22;8599;47.852;12.070;2023-06-26T02:35:08;17.70;99.90
16966;DHT22;8599;47.852;12.070;2023-06-26T02:37:35;17.60;99.90
16966;DHT22;8599;47.852;12.070;2023-06-26T02:40:02;17.60;99.90
16966;DHT22;8599;47.852;12.070;2023-06-26T02:42:31;17.60;99.90
16966;DHT22;8599;47.852;12.070;2023-06-26T02:44:58;17.60;99.90
16966;DHT22;8599;47.852;12.070;2023-06-26T02:47:24;17.60;99.90
16966;DHT22;8599;47.852;12.070;2023-06-26T02:49:51;17.60;99.90
16966;DHT22;8599;47.852;12.070;2023-06-26T02:52:19;17.60;99.90
16966;DHT22;8599;47.852;12.070;2023-06-26T02:54:46;17.50;99.90
16966;DHT22;8599;47.852;12.070;2023-06-26T02:57:13;17.40;99.90
16966;DHT22;8599;47.852;12.070;2023-06-26T02:59:40;17.20;99.90
16966;DHT22;8599;47.852;12.070;2023-06-26T03:02:07;17.30;99.90
16966;DHT22;8599;47.852;12.070;2023-06-26T03:04:34;17.30;99.90
16966;DHT22;8599;47.852;12.070;2023-06-26T03:07:02;17.40;99.90
16966;DHT22;8599;47.852;12.070;2023-06-26T03:09:30;17.20;99.90
16966;DHT22;8599;47.852;12.070;2023-06-26T03:11:57;17.20;99.90
16966;DHT22;8599;47.852;12.070;2023-06-26T03:14:23;17.20;99.90
16966;DHT22;8599;47.852;12.070;2023-06-26T03:16:51;17.20;99.90
16966;DHT22;8599;47.852;12.070;2023-06-26T03:19:18;17.00;99.90
16966;DHT22;8599;47.852;12.070;2023-06-26T03:21:45;17.10;99.90
16966;DHT22;8599;47.852;12.070;2023-06-26T03:24:11;16.90;99.90
16966;DHT22;8599;47.852;12.070;2023-06-26T03:26:40;16.80;99.90
16966;DHT22;8599;47.852;12.070;2023-06-26T03:29:07;16.80;99.90
16966;DHT22;8599;47.852;12.070;2023-06-26T03:31:33;16.80;99.90
16966;DHT22;8599;47.852;12.070;2023-06-26T03:34:00;16.80;99.90
16966;DHT22;8599;47.852;12.070;2023-06-26T03:36:27;16.90;99.90
16966;DHT22;8599;47.852;12.070;2023-06-26T03:38:54;17.00;99.90
16966;DHT22;8599;47.852;12.070;2023-06-26T03:41:22;17.10;99.90
16966;DHT22;8599;47.852;12.070;2023-06-26T03:43:50;17.20;99.90
16966;DHT22;8599;47.852;12.070;2023-06-26T03:46:17;17.20;99.90
16966;DHT22;8599;47.852;12.070;2023-06-26T03:48:44;17.20;99.90
16966;DHT22;8599;47.852;12.070;2023-06-26T03:51:11;17.10;99.90
16966;DHT22;8599;47.852;12.070;2023-06-26T03:53:38;17.20;99.90
16966;DHT22;8599;47.852;12.070;2023-06-26T03:56:05;17.10;99.90
16966;DHT22;8599;47.852;12.070;2023-06-26T03:58:31;17.20;99.90
16966;DHT22;8599;47.852;12.070;2023-06-26T04:01:00;17.20;99.90
16966;DHT22;8599;47.852;12.070;2023-06-26T04:03:26;17.10;99.90
16966;DHT22;8599;47.852;12.070;2023-06-26T04:05:53;17.10;99.90
16966;DHT22;8599;47.852;12.070;2023-06-26T04:08:20;17.30;99.90
16966;DHT22;8599;47.852;12.070;2023-06-26T04:10:47;17.30;99.90
16966;DHT22;8599;47.852;12.070;2023-06-26T04:13:14;17.40;99.90
16966;DHT22;8599;47.852;12.070;2023-06-26T04:15:41;17.50;99.90
16966;DHT22;8599;47.852;12.070;2023-06-26T04:18:09;17.70;99.90
16966;DHT22;8599;47.852;12.070;2023-06-26T04:20:39;17.70;99.90
16966;DHT22;8599;47.852;12.070;2023-06-26T04:23:07;17.70;99.90
16966;DHT22;8599;47.852;12.070;2023-06-26T04:25:34;17.80;99.90
16966;DHT22;8599;47.852;12.070;2023-06-26T04:28:03;17.80;99.90
16966;DHT22;8599;47.852;12.070;2023-06-26T04:30:30;17.90;99.90
16966;DHT22;8599;47.852;12.070;2023-06-26T04:32:57;18.00;99.90
16966;DHT22;8599;47.852;12.070;2023-06-26T04:35:25;18.00;99.90
16966;DHT22;8599;47.852;12.070;2023-06-26T04:37:52;18.00;99.90
16966;DHT22;8599;47.852;12.070;2023-06-26T04:40:19;18.10;99.90
16966;DHT22;8599;47.852;12.070;2023-06-26T04:42:46;18.40;99.90
16966;DHT22;8599;47.852;12.070;2023-06-26T04:45:12;18.80;99.90
16966;DHT22;8599;47.852;12.070;2023-06-26T04:47:39;19.20;99.90
16966;DHT22;8599;47.852;12.070;2023-06-26T04:50:06;19.40;99.90
16966;DHT22;8599;47.852;12.070;2023-06-26T04:52:36;19.60;99.90
16966;DHT22;8599;47.852;12.070;2023-06-26T04:55:03;19.70;99.90
16966;DHT22;8599;47.852;12.070;2023-06-26T04:57:30;19.90;99.90
16966;DHT22;8599;47.852;12.070;2023-06-26T04:59:57;19.90;99.90
16966;DHT22;8599;47.852;12.070;2023-06-26T05:02:23;19.90;99.90
16966;DHT22;8599;47.852;12.070;2023-06-26T05:04:52;20.00;99.90
16966;DHT22;8599;47.852;12.070;2023-06-26T05:07:19;19.90;99.90
16966;DHT22;8599;47.852;12.070;2023-06-26T05:09:47;20.00;99.90
16966;DHT22;8599;47.852;12.070;2023-06-26T05:12:14;20.00;99.90
16966;DHT22;8599;47.852;12.070;2023-06-26T05:14:41;20.20;99.90
16966;DHT22;8599;47.852;12.070;2023-06-26T05:17:08;20.20;99.90
16966;DHT22;8599;47.852;12.070;2023-06-26T05:19:35;20.20;99.90
16966;DHT22;8599;47.852;12.070;2023-06-26T05:22:02;20.20;99.90
16966;DHT22;8599;47.852;12.070;2023-06-26T05:24:33;20.20;99.90
16966;DHT22;8599;47.852;12.070;2023-06-26T05:27:02;20.30;99.90
16966;DHT22;8599;47.852;12.070;2023-06-26T05:29:31;20.40;99.90
16966;DHT22;8599;47.852;12.070;2023-06-26T05:31:58;20.40;99.90
16966;DHT22;8599;47.852;12.070;2023-06-26T05:34:26;20.50;99.90
16966;DHT22;8599;47.852;12.070;2023-06-26T05:36:57;20.60;99.90
16966;DHT22;8599;47.852;12.070;2023-06-26T05:39:25;20.80;99.90
16966;DHT22;8599;47.852;12.070;2023-06-26T05:41:52;20.80;99.90
16966;DHT22;8599;47.852;12.070;2023-06-26T05:44:21;20.70;99.90
16966;DHT22;8599;47.852;12.070;2023-06-26T05:46:47;20.80;99.90
16966;DHT22;8599;47.852;12.070;2023-06-26T05:49:14;21.00;99.90
16966;DHT22;8599;47.852;12.070;2023-06-26T05:51:41;21.00;99.90
16966;DHT22;8599;47.852;12.070;2023-06-26T05:54:09;21.10;99.90
16966;DHT22;8599;47.852;12.070;2023-06-26T05:56:37;21.10;99.90
16966;DHT22;8599;47.852;12.070;2023-06-26T05:59:05;21.10;99.90
16966;DHT22;8599;47.852;12.070;2023-06-26T06:01:33;21.30;99.90
16966;DHT22;8599;47.852;12.070;2023-06-26T06:04:01;21.40;99.90
16966;DHT22;8599;47.852;12.070;2023-06-26T06:06:28;21.50;99.90
16966;DHT22;8599;47.852;12.070;2023-06-26T06:08:54;21.50;99.90
16966;DHT22;8599;47.852;12.070;2023-06-26T06:11:21;21.60;99.90
16966;DHT22;8599;47.852;12.070;2023-06-26T06:13:48;21.60;99.90
16966;DHT22;8599;47.852;12.070;2023-06-26T06:16:15;21.70;99.90
16966;DHT22;8599;47.852;12.070;2023-06-26T06:18:44;21.70;99.90
16966;DHT22;8599;47.852;12.070;2023-06-26T06:21:11;21.70;99.90
16966;DHT22;8599;47.852;12.070;2023-06-26T06:23:37;21.90;99.90
16966;DHT22;8599;47.852;12.070;2023-06-26T06:26:04;21.90;99.90
16966;DHT22;8599;47.852;12.070;2023-06-26T06:28:31;22.00;99.90
16966;DHT22;8599;47.852;12.070;2023-06-26T06:30:58;22.00;99.90
16966;DHT22;8599;47.852;12.070;2023-06-26T06:33:25;22.00;99.90
16966;DHT22;8599;47.852;12.070;2023-06-26T06:35:53;22.10;99.90
16966;DHT22;8599;47.852;12.070;2023-06-26T06:38:20;22.10;99.90
16966;DHT22;8599;47.852;12.070;2023-06-26T06:40:47;22.10;99.90
16966;DHT22;8599;47.852;12.070;2023-06-26T06:43:14;22.20;99.90
16966;DHT22;8599;47.852;12.070;2023-06-26T06:45:41;22.30;99.90
16966;DHT22;8599;47.852;12.070;2023-06-26T06:48:07;22.30;99.90
16966;DHT22;8599;47.852;12.070;2023-06-26T06:50:34;22.40;99.90
16966;DHT22;8599;47.852;12.070;2023-06-26T06:53:02;22.40;99.90
16966;DHT22;8599;47.852;12.070;2023-06-26T06:55:29;22.50;99.90
16966;DHT22;8599;47.852;12.070;2023-06-26T06:57:56;22.40;99.90
16966;DHT22;8599;47.852;12.070;2023-06-26T07:00:23;22.50;99.90
16966;DHT22;8599;47.852;12.070;2023-06-26T07:02:50;22.50;99.90
16966;DHT22;8599;47.852;12.070;2023-06-26T07:05:17;22.50;99.90
16966;DHT22;8599;47.852;12.070;2023-06-26T07:07:44;22.60;99.90
16966;DHT22;8599;47.852;12.070;2023-06-26T07:10:14;22.60;99.90
16966;DHT22;8599;47.852;12.070;2023-06-26T07:12:40;22.60;99.90
16966;DHT22;8599;47.852;12.070;2023-06-26T07:15:08;22.70;99.90
16966;DHT22;8599;47.852;12.070;2023-06-26T07:17:35;22.70;99.90
16966;DHT22;8599;47.852;12.070;2023-06-26T07:20:04;22.80;99.90
16966;DHT22;8599;47.852;12.070;2023-06-26T07:22:32;22.90;99.90
16966;DHT22;8599;47.852;12.070;2023-06-26T07:24:59;23.00;99.90
16966;DHT22;8599;47.852;12.070;2023-06-26T07:27:27;23.00;99.90
16966;DHT22;8599;47.852;12.070;2023-06-26T07:29:54;23.10;99.90
16966;DHT22;8599;47.852;12.070;2023-06-26T07:32:21;23.10;99.90
16966;DHT22;8599;47.852;12.070;2023-06-26T07:34:48;23.20;99.90
16966;DHT22;8599;47.852;12.070;2023-06-26T07:37:15;23.20;99.90
16966;DHT22;8599;47.852;12.070;2023-06-26T07:39:42;23.30;99.90
16966;DHT22;8599;47.852;12.070;2023-06-26T07:42:09;23.50;99.90
16966;DHT22;8599;47.852;12.070;2023-06-26T07:44:37;23.40;99.90
16966;DHT22;8599;47.852;12.070;2023-06-26T07:47:04;23.50;99.90
16966;DHT22;8599;47.852;12.070;2023-06-26T07:49:31;23.70;99.90
16966;DHT22;8599;47.852;12.070;2023-06-26T07:51:58;23.60;99.90
16966;DHT22;8599;47.852;12.070;2023-06-26T07:54:25;23.60;99.90
16966;DHT22;8599;47.852;12.070;2023-06-26T07:56:53;23.60;99.90
16966;DHT22;8599;47.852;12.070;2023-06-26T07:59:21;23.70;99.90
16966;DHT22;8599;47.852;12.070;2023-06-26T08:01:50;23.80;99.90
16966;DHT22;8599;47.852;12.070;2023-06-26T08:04:18;23.90;99.90
16966;DHT22;8599;47.852;12.070;2023-06-26T08:06:45;23.90;99.90
16966;DHT22;8599;47.852;12.070;2023-06-26T08:09:12;24.00;99.90
16966;DHT22;8599;47.852;12.070;2023-06-26T08:11:39;24.10;99.90
16966;DHT22;8599;47.852;12.070;2023-06-26T08:14:06;24.10;99.90
16966;DHT22;8599;47.852;12.070;2023-06-26T08:16:33;24.30;99.30
16966;DHT22;8599;47.852;12.070;2023-06-26T08:19:01;24.30;99.90
16966;DHT22;8599;47.852;12.070;2023-06-26T08:21:28;24.40;99.90
16966;DHT22;8599;47.852;12.070;2023-06-26T08:23:55;24.60;99.40
16966;DHT22;8599;47.852;12.070;2023-06-26T08:26:22;24.60;99.30
16966;DHT22;8599;47.852;12.070;2023-06-26T08:28:49;24.60;99.40
16966;DHT22;8599;47.852;12.070;2023-06-26T08:31:16;24.70;99.70
16966;DHT22;8599;47.852;12.070;2023-06-26T08:33:46;24.80;99.30
16966;DHT22;8599;47.852;12.070;2023-06-26T08:36:15;24.90;98.40
16966;DHT22;8599;47.852;12.070;2023-06-26T08:38:42;25.00;98.70
16966;DHT22;8599;47.852;12.070;2023-06-26T08:41:09;25.10;98.90
16966;DHT22;8599;47.852;12.070;2023-06-26T08:43:36;25.20;98.30
16966;DHT22;8599;47.852;12.070;2023-06-26T08:46:03;25.20;98.30
16966;DHT22;8599;47.852;12.070;2023-06-26T08:48:32;25.30;97.90
16966;DHT22;8599;47.852;12.070;2023-06-26T08:51:01;25.50;97.90
16966;DHT22;8599;47.852;12.070;2023-06-26T08:53:40;25.60;97.40
16966;DHT22;8599;47.852;12.070;2023-06-26T08:56:10;25.60;98.40
16966;DHT22;8599;47.852;12.070;2023-06-26T08:58:38;25.60;97.80
16966;DHT22;8599;47.852;12.070;2023-06-26T09:01:06;25.70;97.40
16966;DHT22;8599;47.852;12.070;2023-06-26T09:03:32;25.80;97.30
16966;DHT22;8599;47.852;12.070;2023-06-26T09:06:00;25.90;97.90
16966;DHT22;8599;47.852;12.070;2023-06-26T09:08:26;26.00;98.30
16966;DHT22;8599;47.852;12.070;2023-06-26T09:10:54;26.10;97.40
16966;DHT22;8599;47.852;12.070;2023-06-26T09:13:21;26.20;96.50
16966;DHT22;8599;47.852;12.070;2023-06-26T09:15:48;26.10;96.70
16966;DHT22;8599;47.852;12.070;2023-06-26T09:18:17;26.10;96.80
16966;DHT22;8599;47.852;12.070;2023-06-26T09:20:44;26.10;97.40
16966;DHT22;8599;47.852;12.070;2023-06-26T09:23:11;26.30;96.30
16966;DHT22;8599;47.852;12.070;2023-06-26T09:25:39;26.50;96.00
16966;DHT22;8599;47.852;12.070;2023-06-26T09:28:08;26.60;95.90
16966;DHT22;8599;47.852;12.070;2023-06-26T09:30:35;26.70;95.30
16966;DHT22;8599;47.852;12.070;2023-06-26T09:33:13;26.80;94.20
16966;DHT22;8599;47.852;12.070;2023-06-26T09:35:40;26.90;95.40
16966;DHT22;8599;47.852;12.070;2023-06-26T09:38:07;27.10;94.00
16966;DHT22;8599;47.852;12.070;2023-06-26T09:40:34;27.20;94.40
16966;DHT22;8599;47.852;12.070;2023-06-26T09:43:03;27.20;94.10
16966;DHT22;8599;47.852;12.070;2023-06-26T09:45:32;27.30;94.60
16966;DHT22;8599;47.852;12.070;2023-06-26T09:48:02;27.40;93.00
16966;DHT22;8599;47.852;12.070;2023-06-26T09:50:30;27.50;93.70
16966;DHT22;8599;47.852;12.070;2023-06-26T09:53:01;27.60;92.20
16966;DHT22;8599;47.852;12.070;2023-06-26T09:55:34;27.60;92.20
16966;DHT22;8599;47.852;12.070;2023-06-26T09:58:03;27.60;91.60
16966;DHT22;8599;47.852;12.070;2023-06-26T10:00:32;27.60;92.30
16966;DHT22;8599;47.852;12.070;2023-06-26T10:02:59;27.70;91.80
16966;DHT22;8599;47.852;12.070;2023-06-26T10:05:27;27.90;91.00
16966;DHT22;8599;47.852;12.070;2023-06-26T10:07:54;28.10;90.80
16966;DHT22;8599;47.852;12.070;2023-06-26T10:10:23;28.10;90.10
16966;DHT22;8599;47.852;12.070;2023-06-26T10:12:54;28.10;90.60
16966;DHT22;8599;47.852;12.070;2023-06-26T10:15:23;28.10;89.40
16966;DHT22;8599;47.852;12.070;2023-06-26T10:17:54;28.30;89.60
16966;DHT22;8599;47.852;12.070;2023-06-26T10:20:22;28.30;88.70
16966;DHT22;8599;47.852;12.070;2023-06-26T10:22:49;28.30;89.60
16966;DHT22;8599;47.852;12.070;2023-06-26T10:25:18;28.30;88.70
16966;DHT22;8599;47.852;12.070;2023-06-26T10:27:49;28.40;88.00
16966;DHT22;8599;47.852;12.070;2023-06-26T10:30:21;28.40;88.10
16966;DHT22;8599;47.852;12.070;2023-06-26T10:32:49;28.60;88.10
16966;DHT22;8599;47.852;12.070;2023-06-26T10:35:18;28.40;84.80
16966;DHT22;8599;47.852;12.070;2023-06-26T10:37:48;28.30;86.20
16966;DHT22;8599;47.852;12.070;2023-06-26T10:40:21;28.10;85.90
16966;DHT22;8599;47.852;12.070;2023-06-26T10:42:48;28.10;86.80
16966;DHT22;8599;47.852;12.070;2023-06-26T10:45:17;28.20;86.40
16966;DHT22;8599;47.852;12.070;2023-06-26T10:47:46;28.20;86.10
16966;DHT22;8599;47.852;12.070;2023-06-26T10:50:23;28.10;87.30
16966;DHT22;8599;47.852;12.070;2023-06-26T10:53:09;28.10;88.00
16966;DHT22;8599;47.852;12.070;2023-06-26T10:55:37;28.20;87.10
16966;DHT22;8599;47.852;12.070;2023-06-26T10:58:04;28.30;85.70
16966;DHT22;8599;47.852;12.070;2023-06-26T11:00:30;28.40;84.70
16966;DHT22;8599;47.852;12.070;2023-06-26T11:02:57;28.40;83.20
16966;DHT22;8599;47.852;12.070;2023-06-26T11:05:29;28.30;84.70
16966;DHT22;8599;47.852;12.070;2023-06-26T11:08:06;28.40;83.70
16966;DHT22;8599;47.852;12.070;2023-06-26T11:10:50;28.60;84.00
16966;DHT22;8599;47.852;12.070;2023-06-26T11:13:18;28.60;84.70
16966;DHT22;8599;47.852;12.070;2023-06-26T11:15:46;28.60;82.30
16966;DHT22;8599;47.852;12.070;2023-06-26T11:18:13;28.60;83.60
16966;DHT22;8599;47.852;12.070;2023-06-26T11:20:41;28.80;82.50
16966;DHT22;8599;47.852;12.070;2023-06-26T11:23:08;29.00;79.90
16966;DHT22;8599;47.852;12.070;2023-06-26T11:25:36;29.00;82.60
16966;DHT22;8599;47.852;12.070;2023-06-26T11:28:03;28.90;81.90
16966;DHT22;8599;47.852;12.070;2023-06-26T11:30:31;28.90;81.80
16966;DHT22;8599;47.852;12.070;2023-06-26T11:33:05;28.70;82.20
16966;DHT22;8599;47.852;12.070;2023-06-26T11:35:32;28.80;82.40
16966;DHT22;8599;47.852;12.070;2023-06-26T11:38:03;29.00;82.30
16966;DHT22;8599;47.852;12.070;2023-06-26T11:40:31;29.30;80.50
16966;DHT22;8599;47.852;12.070;2023-06-26T11:42:59;29.60;80.20
16966;DHT22;8599;47.852;12.070;2023-06-26T11:45:28;29.70;78.80
16966;DHT22;8599;47.852;12.070;2023-06-26T11:47:55;30.00;78.50
16966;DHT22;8599;47.852;12.070;2023-06-26T11:50:23;30.20;77.90
16966;DHT22;8599;47.852;12.070;2023-06-26T11:52:54;30.30;77.10
16966;DHT22;8599;47.852;12.070;2023-06-26T11:55:24;30.40;76.20
16966;DHT22;8599;47.852;12.070;2023-06-26T11:57:53;30.40;74.50
16966;DHT22;8599;47.852;12.070;2023-06-26T12:00:23;30.50;75.60
16966;DHT22;8599;47.852;12.070;2023-06-26T12:02:50;30.60;74.80
16966;DHT22;8599;47.852;12.070;2023-06-26T12:05:18;30.80;74.80
16966;DHT22;8599;47.852;12.070;2023-06-26T12:07:46;30.90;73.30
16966;DHT22;8599;47.852;12.070;2023-06-26T12:10:14;31.00;73.80
16966;DHT22;8599;47.852;12.070;2023-06-26T12:12:42;31.10;73.90
16966;DHT22;8599;47.852;12.070;2023-06-26T12:15:14;31.10;72.60
16966;DHT22;8599;47.852;12.070;2023-06-26T12:17:41;31.20;73.50
16966;DHT22;8599;47.852;12.070;2023-06-26T12:20:17;31.30;72.90
16966;DHT22;8599;47.852;12.070;2023-06-26T12:22:46;31.40;73.30
16966;DHT22;8599;47.852;12.070;2023-06-26T12:25:13;31.40;70.00
16966;DHT22;8599;47.852;12.070;2023-06-26T12:27:40;31.30;68.90
16966;DHT22;8599;47.852;12.070;2023-06-26T12:30:08;31.50;69.60
16966;DHT22;8599;47.852;12.070;2023-06-26T12:32:35;31.70;69.90
16966;DHT22;8599;47.852;12.070;2023-06-26T12:35:02;31.90;69.90
16966;DHT22;8599;47.852;12.070;2023-06-26T12:37:36;32.10;70.10
16966;DHT22;8599;47.852;12.070;2023-06-26T12:40:04;32.00;69.90
16966;DHT22;8599;47.852;12.070;2023-06-26T12:42:33;31.70;70.50
16966;DHT22;8599;47.852;12.070;2023-06-26T12:45:12;31.50;69.10
16966;DHT22;8599;47.852;12.070;2023-06-26T12:47:39;31.60;69.40
16966;DHT22;8599;47.852;12.070;2023-06-26T12:50:07;31.50;69.20
16966;DHT22;8599;47.852;12.070;2023-06-26T12:52:34;31.70;68.90
16966;DHT22;8599;47.852;12.070;2023-06-26T12:55:02;31.80;70.00
16966;DHT22;8599;47.852;12.070;2023-06-26T12:57:28;32.10;70.90
16966;DHT22;8599;47.852;12.070;2023-06-26T12:59:55;32.30;67.40
16966;DHT22;8599;47.852;12.070;2023-06-26T13:02:23;32.50;67.80
16966;DHT22;8599;47.852;12.070;2023-06-26T13:04:50;32.70;65.80
16966;DHT22;8599;47.852;12.070;2023-06-26T13:07:17;32.90;66.20
16966;DHT22;8599;47.852;12.070;2023-06-26T13:09:44;33.00;65.60
16966;DHT22;8599;47.852;12.070;2023-06-26T13:12:11;32.90;64.60
16966;DHT22;8599;47.852;12.070;2023-06-26T13:14:38;32.70;64.80
16966;DHT22;8599;47.852;12.070;2023-06-26T13:17:05;32.50;65.80
16966;DHT22;8599;47.852;12.070;2023-06-26T13:19:33;32.50;65.10
16966;DHT22;8599;47.852;12.070;2023-06-26T13:22:00;32.80;66.10
16966;DHT22;8599;47.852;12.070;2023-06-26T13:24:27;33.00;65.30
16966;DHT22;8599;47.852;12.070;2023-06-26T13:26:54;32.90;64.40
16966;DHT22;8599;47.852;12.070;2023-06-26T13:29:20;32.80;64.70
16966;DHT22;8599;47.852;12.070;2023-06-26T13:31:48;32.70;64.70
16966;DHT22;8599;47.852;12.070;2023-06-26T13:34:21;33.10;66.20
16966;DHT22;8599;47.852;12.070;2023-06-26T13:36:50;33.20;63.90
16966;DHT22;8599;47.852;12.070;2023-06-26T13:39:17;33.60;62.70
16966;DHT22;8599;47.852;12.070;2023-06-26T13:41:44;33.70;61.70
16966;DHT22;8599;47.852;12.070;2023-06-26T13:44:11;33.60;62.00
16966;DHT22;8599;47.852;12.070;2023-06-26T13:46:38;33.50;60.80
16966;DHT22;8599;47.852;12.070;2023-06-26T13:49:05;33.40;60.50
16966;DHT22;8599;47.852;12.070;2023-06-26T13:51:31;33.50;61.60
16966;DHT22;8599;47.852;12.070;2023-06-26T13:53:59;33.70;60.00
16966;DHT22;8599;47.852;12.070;2023-06-26T13:56:26;33.90;60.50
16966;DHT22;8599;47.852;12.070;2023-06-26T13:58:56;33.80;61.70
16966;DHT22;8599;47.852;12.070;2023-06-26T14:01:23;33.60;61.20
16966;DHT22;8599;47.852;12.070;2023-06-26T14:03:50;33.60;60.10
16966;DHT22;8599;47.852;12.070;2023-06-26T14:06:17;33.70;61.10
16966;DHT22;8599;47.852;12.070;2023-06-26T14:08:44;33.50;61.10
16966;DHT22;8599;47.852;12.070;2023-06-26T14:11:12;33.50;61.80
16966;DHT22;8599;47.852;12.070;2023-06-26T14:13:41;33.60;62.20
16966;DHT22;8599;47.852;12.070;2023-06-26T14:16:07;33.70;60.60
16966;DHT22;8599;47.852;12.070;2023-06-26T14:18:35;33.40;59.60
16966;DHT22;8599;47.852;12.070;2023-06-26T14:21:02;33.40;60.00
16966;DHT22;8599;47.852;12.070;2023-06-26T14:23:29;33.70;60.20
16966;DHT22;8599;47.852;12.070;2023-06-26T14:25:56;33.70;59.90
16966;DHT22;8599;47.852;12.070;2023-06-26T14:28:24;33.60;60.00
16966;DHT22;8599;47.852;12.070;2023-06-26T14:30:51;33.30;59.70
16966;DHT22;8599;47.852;12.070;2023-06-26T14:33:18;33.20;60.80
16966;DHT22;8599;47.852;12.070;2023-06-26T14:35:44;33.30;60.20
16966;DHT22;8599;47.852;12.070;2023-06-26T14:38:11;33.70;60.20
16966;DHT22;8599;47.852;12.070;2023-06-26T14:40:38;33.90;59.90
16966;DHT22;8599;47.852;12.070;2023-06-26T14:43:05;33.60;59.60
16966;DHT22;8599;47.852;12.070;2023-06-26T14:45:33;33.20;60.60
16966;DHT22;8599;47.852;12.070;2023-06-26T14:48:00;32.70;62.10
16966;DHT22;8599;47.852;12.070;2023-06-26T14:50:26;32.40;61.90
16966;DHT22;8599;47.852;12.070;2023-06-26T14:52:53;32.00;62.60
16966;DHT22;8599;47.852;12.070;2023-06-26T14:55:20;31.90;64.00
16966;DHT22;8599;47.852;12.070;2023-06-26T14:57:47;32.50;63.90
16966;DHT22;8599;47.852;12.070;2023-06-26T15:00:15;33.10;63.60
16966;DHT22;8599;47.852;12.070;2023-06-26T15:02:44;33.40;61.80
16966;DHT22;8599;47.852;12.070;2023-06-26T15:05:11;33.40;60.90
16966;DHT22;8599;47.852;12.070;2023-06-26T15:07:37;33.50;62.60
16966;DHT22;8599;47.852;12.070;2023-06-26T15:10:05;33.40;63.10
16966;DHT22;8599;47.852;12.070;2023-06-26T15:12:32;33.40;62.70
16966;DHT22;8599;47.852;12.070;2023-06-26T15:14:59;33.20;62.30
16966;DHT22;8599;47.852;12.070;2023-06-26T15:17:26;33.20;63.90
16966;DHT22;8599;47.852;12.070;2023-06-26T15:19:54;32.80;62.40
16966;DHT22;8599;47.852;12.070;2023-06-26T15:22:22;32.90;63.00
16966;DHT22;8599;47.852;12.070;2023-06-26T15:24:52;33.00;64.00
16966;DHT22;8599;47.852;12.070;2023-06-26T15:27:19;32.80;63.30
16966;DHT22;8599;47.852;12.070;2023-06-26T15:29:46;32.60;63.80
16966;DHT22;8599;47.852;12.070;2023-06-26T15:32:12;32.30;65.30
16966;DHT22;8599;47.852;12.070;2023-06-26T15:34:41;32.10;65.00